Terminal Aerodrome Forecast
Issued by NWS

Home | Current Version | Previous Version | Text Only | Print | Product List | Glossary On
Versions: 1 2 3 4 5 6 7 8 9 10 11 12 13 14 15 16 17 18 19 20 21 22 23 24
000
FTUS46 KHNX 172320
TAFBFL
TAF
KBFL 172320Z 1800/1824 00000KT P6SM SKC
     FM180100 13003KT 3SM BR OVC010
     FM181400 VRB03KT 4SM BR BKN050
     FM182300 34004KT P6SM OVC100=

USA.gov is the U.S. government's official web portal to all federal, state and local government web resources and services.